Time;durP1;ratioP1;P1;durP2;ratioP2;P2;SDS_P1;SDS_P2;PMS_P1;PMS_P2;Temp;Humidity;BMP_temperature;BMP_pressure;BME280_temperature;BME280_humidity;BME280_pressure;Samples;Min_cycle;Max_cycle;Signal;HPM_P1;HPM_P2
2021/09/27 00:00:27;;;;;;;5.50;1.70;;;19.10;73.10;;;;;;5044643;28;20396;-75
2021/09/27 00:02:55;;;;;;;8.30;1.83;;;19.10;73.20;;;;;;5043966;28;20480;-75
2021/09/27 00:05:22;;;;;;;5.38;1.55;;;19.00;73.10;;;;;;5042093;28;20029;-75
2021/09/27 00:08:29;;;;;;;6.25;2.10;;;19.00;73.30;;;;;;5042591;28;20035;-75
2021/09/27 00:11:15;;;;;;;;;;;19.00;73.50;;;;;;5038956;28;20021;-75
2021/09/27 00:13:44;;;;;;;7.55;1.95;;;19.00;73.60;;;;;;5039418;28;20352;-75
2021/09/27 00:16:11;;;;;;;7.18;2.60;;;18.90;73.50;;;;;;5041735;28;20028;-76
2021/09/27 00:18:38;;;;;;;6.45;1.67;;;18.90;73.50;;;;;;5045600;28;20037;-75
2021/09/27 00:21:08;;;;;;;6.63;1.70;;;18.90;73.70;;;;;;5041686;28;20463;-76
2021/09/27 00:23:36;;;;;;;6.75;2.58;;;18.90;73.60;;;;;;5044055;28;20036;-75
2021/09/27 00:26:04;;;;;;;5.50;1.67;;;18.90;73.80;;;;;;5041035;28;20017;-75
2021/09/27 00:28:31;;;;;;;5.70;1.60;;;18.90;73.80;;;;;;5039233;28;20092;-77
2021/09/27 00:30:57;;;;;;;3.80;2.28;;;18.80;73.60;;;;;;5041482;28;20385;-76
2021/09/27 00:33:25;;;;;;;4.75;1.55;;;18.80;73.80;;;;;;5042824;28;20353;-76
2021/09/27 00:35:52;;;;;;;5.72;1.23;;;18.80;73.90;;;;;;5043043;28;20032;-75
2021/09/27 00:38:19;;;;;;;4.88;1.45;;;18.80;74.00;;;;;;5039506;28;20392;-75
2021/09/27 00:40:51;;;;;;;5.85;1.40;;;18.90;74.00;;;;;;5040678;28;20021;-75
2021/09/27 00:43:18;;;;;;;5.55;1.38;;;18.80;73.80;;;;;;5042748;28;21338;-75
2021/09/27 00:45:50;;;;;;;3.83;2.20;;;18.80;73.60;;;;;;5039210;28;20054;-75
2021/09/27 00:48:18;;;;;;;9.63;2.95;;;18.80;73.70;;;;;;5043024;28;20379;-75
2021/09/27 00:50:50;;;;;;;6.18;1.55;;;18.80;73.50;;;;;;5039278;28;20032;-75
2021/09/27 00:53:55;;;;;;;10.00;1.30;;;18.80;73.70;;;;;;5040144;28;20025;-75
2021/09/27 00:56:27;;;;;;;4.43;1.27;;;18.80;73.40;;;;;;5044812;28;20082;-76
2021/09/27 00:58:55;;;;;;;8.27;2.40;;;18.80;73.10;;;;;;5040892;28;20037;-76
2021/09/27 01:01:23;;;;;;;5.25;1.95;;;18.80;72.90;;;;;;5042327;28;20502;-75
2021/09/27 01:03:51;;;;;;;7.00;1.80;;;18.80;72.80;;;;;;5035660;28;20021;-76
2021/09/27 01:06:59;;;;;;;6.45;2.13;;;18.70;72.90;;;;;;5039631;28;20055;-76
2021/09/27 01:09:32;;;;;;;2.92;1.30;;;18.70;72.80;;;;;;5042262;28;21045;-75
2021/09/27 01:12:23;;;;;;;4.47;1.30;;;18.70;72.80;;;;;;5041327;28;20779;-75
2021/09/27 01:15:25;;;;;;;3.13;1.10;;;18.70;72.90;;;;;;5041199;28;20029;-76
2021/09/27 01:18:29;;;;;;;5.70;1.58;;;18.70;73.10;;;;;;5042841;28;20037;-76
2021/09/27 01:21:31;;;;;;;4.00;1.10;;;18.70;73.10;;;;;;5040014;28;20418;-75
2021/09/27 01:24:21;;;;;;;5.40;1.33;;;18.70;73.20;;;;;;4980448;28;20490;-76
2021/09/27 01:26:56;;;;;;;4.18;1.38;;;18.70;73.40;;;;;;5037063;28;20037;-76
2021/09/27 01:29:41;;;;;;;6.70;1.98;;;18.60;73.60;;;;;;5040425;28;20475;-75
2021/09/27 01:32:22;;;;;;;9.32;1.40;;;18.60;74.00;;;;;;5044197;28;20056;-75
2021/09/27 01:35:22;;;;;;;3.55;1.58;;;18.60;74.20;;;;;;5038381;28;20036;-75
2021/09/27 01:38:27;;;;;;;8.13;1.70;;;18.60;74.30;;;;;;5041207;28;20032;-73
2021/09/27 01:41:12;;;;;;;22.73;16.52;;;18.60;74.30;;;;;;5020268;28;20081;-73
2021/09/27 01:44:26;;;;;;;13.00;7.18;;;18.60;74.60;;;;;;5040208;28;20105;-75
2021/09/27 01:47:08;;;;;;;3.80;1.35;;;18.60;74.20;;;;;;4941300;29;20194;-75
2021/09/27 01:49:42;;;;;;;3.10;1.30;;;18.60;73.90;;;;;;5037814;28;20483;-75
2021/09/27 01:52:26;;;;;;;7.40;1.50;;;18.60;73.90;;;;;;5044229;28;20082;-76
2021/09/27 01:54:59;;;;;;;2.65;1.05;;;18.60;73.80;;;;;;5040517;28;20142;-75
2021/09/27 01:57:43;;;;;;;13.85;2.38;;;18.50;73.60;;;;;;5039978;28;20026;-75
2021/09/27 02:00:23;;;;;;;4.97;1.43;;;18.50;73.50;;;;;;5039360;28;20036;-75
2021/09/27 02:03:22;;;;;;;5.07;1.70;;;18.50;73.50;;;;;;5037774;28;20501;-75
2021/09/27 02:05:58;;;;;;;3.45;1.00;;;18.50;73.60;;;;;;5025960;28;20114;-75
2021/09/27 02:08:30;;;;;;;4.32;1.80;;;18.40;73.50;;;;;;5039220;28;20009;-75
2021/09/27 02:11:20;;;;;;;6.30;2.13;;;18.40;73.50;;;;;;5039711;28;20586;-76
2021/09/27 02:14:06;;;;;;;6.45;1.58;;;18.40;73.40;;;;;;5040523;28;20500;-76
2021/09/27 02:16:53;;;;;;;3.35;1.55;;;18.40;73.30;;;;;;5038088;28;20056;-75
2021/09/27 02:19:26;;;;;;;4.93;1.27;;;18.40;73.30;;;;;;5036778;28;20120;-76
2021/09/27 02:22:05;;;;;;;5.75;1.58;;;18.40;73.20;;;;;;5038035;28;20029;-76
2021/09/27 02:24:58;;;;;;;4.13;1.35;;;18.40;73.20;;;;;;5038558;28;20060;-75
2021/09/27 02:27:24;;;;;;;3.20;1.58;;;18.40;73.20;;;;;;5042516;28;20033;-73
2021/09/27 02:29:51;;;;;;;6.80;2.70;;;18.40;73.30;;;;;;5042370;28;20016;-75
2021/09/27 02:32:47;;;;;;;5.78;1.65;;;18.50;73.50;;;;;;5040745;28;20052;-72
2021/09/27 02:35:32;;;;;;;51.33;37.25;;;18.50;73.60;;;;;;5033697;28;20040;-75
2021/09/27 02:38:05;;;;;;;12.30;7.17;;;18.50;73.70;;;;;;5038600;28;20018;-73
2021/09/27 02:40:48;;;;;;;7.43;2.17;;;18.50;73.60;;;;;;5038008;28;20274;-73
2021/09/27 02:43:15;;;;;;;3.50;1.30;;;18.50;73.50;;;;;;5039374;28;20119;-75
2021/09/27 02:45:45;;;;;;;8.63;2.10;;;18.50;73.40;;;;;;5039757;28;20032;-73
2021/09/27 02:48:38;;;;;;;4.13;1.60;;;18.50;73.50;;;;;;5038275;28;20593;-75
2021/09/27 02:51:06;;;;;;;5.65;1.67;;;18.40;73.60;;;;;;5039454;28;20451;-75
2021/09/27 02:53:34;;;;;;;7.50;2.67;;;18.40;73.70;;;;;;5042424;28;20376;-73
2021/09/27 02:56:18;;;;;;;6.50;1.80;;;18.40;73.80;;;;;;5040990;28;20041;-74
2021/09/27 02:59:06;;;;;;;7.10;3.03;;;18.40;73.90;;;;;;5039994;28;20556;-75
2021/09/27 03:01:46;;;;;;;7.63;2.03;;;18.30;74.00;;;;;;5042534;28;20029;-74
2021/09/27 03:04:26;;;;;;;5.80;2.40;;;18.40;74.20;;;;;;5039285;28;20032;-74
2021/09/27 03:07:29;;;;;;;5.10;1.60;;;18.30;74.10;;;;;;5041798;28;20025;-73
2021/09/27 03:10:31;;;;;;;6.93;3.22;;;18.30;74.20;;;;;;5032063;28;20083;-75
2021/09/27 03:13:26;;;;;;;8.02;1.60;;;18.30;74.40;;;;;;4986435;28;20474;-73
2021/09/27 03:16:05;;;;;;;6.47;1.30;;;18.30;74.50;;;;;;5038162;28;20115;-73
2021/09/27 03:18:47;;;;;;;5.90;1.85;;;18.30;74.50;;;;;;5042574;28;20112;-73
2021/09/27 03:21:44;;;;;;;7.18;1.50;;;18.20;74.60;;;;;;5040154;28;20076;-73
2021/09/27 03:24:36;;;;;;;7.97;2.35;;;18.20;74.70;;;;;;5039329;28;20029;-75
2021/09/27 03:27:16;;;;;;;4.80;2.08;;;18.30;75.10;;;;;;5042194;28;20068;-75
2021/09/27 03:30:00;;;;;;;7.00;2.03;;;18.30;74.80;;;;;;5048203;28;20529;-74
2021/09/27 03:33:17;;;;;;;8.00;3.20;;;18.30;74.70;;;;;;5042977;28;20020;-74
2021/09/27 03:36:12;;;;;;;7.88;1.42;;;18.20;74.70;;;;;;5042176;28;20518;-76
2021/09/27 03:38:52;;;;;;;6.22;1.98;;;18.20;74.90;;;;;;5042755;28;20111;-74
2021/09/27 03:41:49;;;;;;;6.25;2.08;;;18.20;74.80;;;;;;5043337;28;20017;-76
2021/09/27 03:44:24;;;;;;;12.23;2.83;;;18.10;75.10;;;;;;5045590;28;20064;-75
2021/09/27 03:46:53;;;;;;;;;;;18.10;75.30;;;;;;5039684;28;20427;-75
2021/09/27 03:49:47;;;;;;;5.72;1.80;;;18.10;75.40;;;;;;5045138;28;19912;-76
2021/09/27 03:52:25;;;;;;;6.75;2.33;;;18.10;75.50;;;;;;5039653;28;20034;-75
2021/09/27 03:55:17;;;;;;;8.48;1.67;;;18.10;75.60;;;;;;5044958;28;20503;-72
2021/09/27 03:57:50;;;;;;;6.97;2.00;;;18.10;75.60;;;;;;5040544;28;20022;-76
2021/09/27 04:00:44;;;;;;;6.15;1.30;;;18.10;75.80;;;;;;5041766;28;20053;-75
2021/09/27 04:03:47;;;;;;;6.47;1.90;;;18.10;75.70;;;;;;5040101;28;20079;-73
2021/09/27 04:06:50;;;;;;;6.00;1.67;;;18.10;75.60;;;;;;5040347;28;20017;-73
2021/09/27 04:09:34;;;;;;;4.40;1.25;;;18.10;75.50;;;;;;5043253;28;20017;-73
2021/09/27 04:12:26;;;;;;;8.48;1.85;;;18.10;75.60;;;;;;5037172;28;20029;-75
2021/09/27 04:15:31;;;;;;;19.08;13.82;;;18.10;76.10;;;;;;5039889;28;20017;-75
2021/09/27 04:18:55;;;;;;;43.20;27.25;;;18.10;75.80;;;;;;5038348;28;20025;-74
2021/09/27 04:22:02;;;;;;;9.43;4.03;;;18.00;75.70;;;;;;5019726;28;20048;-73
2021/09/27 04:24:51;;;;;;;5.72;1.80;;;18.00;75.70;;;;;;5036201;28;20030;-71
2021/09/27 04:27:26;;;;;;;8.55;2.35;;;18.00;75.90;;;;;;5034335;28;20030;-72
2021/09/27 04:30:31;;;;;;;9.98;3.40;;;18.00;76.10;;;;;;5037367;28;20021;-73
2021/09/27 04:33:35;;;;;;;6.97;2.22;;;17.90;76.20;;;;;;5037294;28;20034;-75
2021/09/27 04:36:57;;;;;;;4.55;1.50;;;18.00;76.50;;;;;;5039359;28;20567;-73
2021/09/27 04:40:03;;;;;;;8.93;2.45;;;18.00;76.60;;;;;;5036949;28;20037;-76
2021/09/27 04:43:15;;;;;;;7.55;1.92;;;17.90;76.60;;;;;;5038975;28;20025;-75
2021/09/27 04:46:30;;;;;;;7.28;2.00;;;17.90;76.50;;;;;;5041907;28;20067;-76
2021/09/27 04:49:55;;;;;;;14.18;2.75;;;17.80;76.50;;;;;;5040909;28;20381;-76
2021/09/27 04:52:54;;;;;;;6.88;3.38;;;17.80;76.90;;;;;;5038995;28;20112;-75
2021/09/27 04:55:33;;;;;;;13.93;3.15;;;17.80;77.60;;;;;;5043231;28;20017;-76
2021/09/27 04:58:26;;;;;;;8.80;2.90;;;17.90;78.00;;;;;;5040460;28;20079;-75
2021/09/27 05:01:00;;;;;;;5.97;2.83;;;17.90;77.70;;;;;;5036010;28;20049;-75
2021/09/27 05:03:39;;;;;;;7.37;2.07;;;17.90;77.80;;;;;;5043115;28;20474;-75
2021/09/27 05:06:23;;;;;;;6.03;2.08;;;17.90;77.80;;;;;;5040326;28;20360;-75
2021/09/27 05:09:04;;;;;;;10.35;2.13;;;17.90;78.00;;;;;;5036761;28;20391;-74
2021/09/27 05:11:48;;;;;;;14.63;2.72;;;17.90;78.10;;;;;;5036988;28;20023;-74
2021/09/27 05:14:35;;;;;;;6.47;2.65;;;17.90;78.20;;;;;;5042273;28;20017;-74
2021/09/27 05:17:26;;;;;;;9.05;2.63;;;18.00;78.30;;;;;;5042645;28;20017;-74
2021/09/27 05:20:36;;;;;;;7.50;1.80;;;18.00;78.20;;;;;;5040263;28;20087;-74
2021/09/27 05:23:03;;;;;;;5.90;2.08;;;18.10;78.20;;;;;;5040806;28;20071;-74
2021/09/27 05:25:41;;;;;;;9.32;1.95;;;18.10;78.10;;;;;;5039781;28;20013;-73
2021/09/27 05:28:22;;;;;;;9.93;3.10;;;18.10;77.90;;;;;;5040521;28;20897;-74
2021/09/27 05:30:51;;;;;;;12.73;2.95;;;18.20;77.60;;;;;;5042500;28;20066;-74
2021/09/27 05:33:27;;;;;;;12.35;2.53;;;18.20;77.40;;;;;;5037458;28;20017;-74
2021/09/27 05:36:11;;;;;;;12.90;3.33;;;18.20;77.30;;;;;;5040567;28;20104;-73
2021/09/27 05:39:05;;;;;;;7.95;3.00;;;18.30;77.30;;;;;;5038899;28;20033;-74
2021/09/27 05:41:39;;;;;;;10.10;3.67;;;18.30;76.90;;;;;;5041326;28;20423;-74
2021/09/27 05:44:17;;;;;;;8.35;2.85;;;18.40;76.90;;;;;;5040038;28;20017;-73
2021/09/27 05:46:56;;;;;;;6.80;2.15;;;18.40;76.90;;;;;;5042046;28;20763;-75
2021/09/27 05:49:50;;;;;;;8.30;2.05;;;18.40;76.90;;;;;;5040783;28;20098;-75
2021/09/27 05:52:25;;;;;;;4.50;1.92;;;18.50;76.70;;;;;;5038532;28;20032;-74
2021/09/27 05:55:04;;;;;;;;;;;18.50;76.90;;;;;;5043262;28;20033;-74
2021/09/27 05:57:45;;;;;;;8.95;1.85;;;18.50;77.30;;;;;;5035348;28;20288;-74
2021/09/27 06:00:40;;;;;;;7.72;1.70;;;18.50;77.50;;;;;;5041526;28;20041;-74
2021/09/27 06:03:22;;;;;;;6.38;2.35;;;18.60;77.70;;;;;;5040657;28;20036;-74
2021/09/27 06:06:11;;;;;;;15.50;2.28;;;18.60;77.80;;;;;;5036252;28;20413;-75
2021/09/27 06:09:05;;;;;;;10.90;2.53;;;18.60;78.00;;;;;;5035042;28;20053;-75
2021/09/27 06:11:53;;;;;;;5.97;1.35;;;18.70;78.10;;;;;;5039894;28;20017;-75
2021/09/27 06:14:20;;;;;;;4.60;1.33;;;18.70;77.80;;;;;;5035101;28;20047;-75
2021/09/27 06:17:08;;;;;;;7.30;1.75;;;18.70;77.50;;;;;;5039762;28;20047;-76
2021/09/27 06:19:52;;;;;;;8.05;2.03;;;18.70;78.20;;;;;;5040968;28;20029;-75
2021/09/27 06:22:41;;;;;;;8.60;5.20;;;18.70;77.70;;;;;;5042051;28;20018;-74
2021/09/27 06:25:52;;;;;;;40.40;26.52;;;18.80;77.30;;;;;;5044979;28;20087;-76
2021/09/27 06:28:36;;;;;;;11.48;5.25;;;18.80;77.30;;;;;;5039552;28;20044;-73
2021/09/27 06:31:28;;;;;;;11.00;4.38;;;18.80;77.10;;;;;;5042448;28;20028;-74
2021/09/27 06:34:35;;;;;;;7.97;2.58;;;18.80;76.70;;;;;;5035826;28;20044;-76
2021/09/27 06:37:39;;;;;;;6.32;2.33;;;18.90;76.40;;;;;;5042164;28;20083;-74
2021/09/27 06:40:45;;;;;;;5.90;1.98;;;18.90;76.00;;;;;;5041545;28;20448;-74
2021/09/27 06:43:51;;;;;;;7.40;1.65;;;19.00;76.30;;;;;;5042610;28;21101;-75
2021/09/27 06:46:19;;;;;;;;;;;19.00;75.70;;;;;;5040951;28;20018;-73
2021/09/27 06:49:25;;;;;;;10.48;3.42;;;19.00;75.50;;;;;;5038843;28;19912;-74
2021/09/27 06:52:31;;;;;;;7.45;2.40;;;19.00;75.10;;;;;;5041332;28;20029;-75
2021/09/27 06:55:37;;;;;;;5.72;1.70;;;19.10;75.00;;;;;;5040812;28;20025;-73
2021/09/27 06:58:43;;;;;;;4.45;1.33;;;19.00;74.70;;;;;;5040088;28;20031;-74
2021/09/27 07:01:49;;;;;;;5.05;1.42;;;19.00;74.60;;;;;;5039391;28;20032;-74
2021/09/27 07:04:56;;;;;;;6.10;1.83;;;19.10;74.80;;;;;;5041117;28;20047;-74
2021/09/27 07:08:02;;;;;;;7.75;1.27;;;19.10;74.50;;;;;;5044163;28;20486;-74
2021/09/27 07:11:08;;;;;;;6.75;1.38;;;19.10;74.40;;;;;;5043460;28;20024;-74
2021/09/27 07:14:14;;;;;;;4.25;1.23;;;19.20;74.00;;;;;;5041266;28;20109;-73
2021/09/27 07:17:20;;;;;;;3.20;1.50;;;19.20;74.10;;;;;;5041771;28;20100;-73
2021/09/27 07:20:27;;;;;;;4.85;2.08;;;19.30;74.40;;;;;;5041166;28;20037;-73
2021/09/27 07:23:38;;;;;;;14.77;10.40;;;19.30;74.10;;;;;;5042360;28;20025;-75
2021/09/27 07:26:07;;;;;;;5.32;2.03;;;19.40;73.60;;;;;;5042194;28;20398;-75
2021/09/27 07:28:53;;;;;;;13.07;1.77;;;19.50;73.50;;;;;;5042789;28;20025;-75
2021/09/27 07:31:59;;;;;;;3.85;1.05;;;19.60;73.10;;;;;;5042016;28;20527;-75
2021/09/27 07:35:05;;;;;;;6.93;1.52;;;19.60;72.80;;;;;;5040986;28;20028;-75
2021/09/27 07:37:32;;;;;;;3.38;1.10;;;19.70;72.30;;;;;;5037243;28;20013;-75
2021/09/27 07:40:38;;;;;;;4.40;1.85;;;19.80;71.80;;;;;;5041720;28;20047;-75
2021/09/27 07:43:46;;;;;;;7.95;2.35;;;19.80;71.50;;;;;;5036791;28;20032;-75
2021/09/27 07:46:52;;;;;;;2.42;0.60;;;19.90;71.20;;;;;;5038396;28;20102;-76
2021/09/27 07:49:58;;;;;;;7.05;1.42;;;19.90;69.90;;;;;;5036380;28;20041;-76
2021/09/27 07:53:04;;;;;;;4.90;1.17;;;19.90;68.90;;;;;;5039080;28;20426;-75
2021/09/27 07:56:10;;;;;;;13.30;9.10;;;19.80;69.30;;;;;;5034126;28;20032;-75
2021/09/27 07:59:16;;;;;;;6.70;4.10;;;19.80;69.40;;;;;;5033677;28;20037;-75
2021/09/27 08:02:18;;;;;;;2.40;0.68;;;19.90;69.50;;;;;;5038724;28;20111;-74
2021/09/27 08:05:25;;;;;;;2.22;0.82;;;19.80;68.60;;;;;;5034729;28;20036;-76
2021/09/27 08:08:31;;;;;;;2.67;0.90;;;19.90;68.00;;;;;;5038518;28;20480;-75
2021/09/27 08:11:40;;;;;;;5.13;0.90;;;19.80;67.50;;;;;;5038243;28;20024;-75
2021/09/27 08:14:46;;;;;;;2.83;0.95;;;19.90;68.30;;;;;;5039162;28;20423;-76
2021/09/27 08:17:41;;;;;;;3.38;0.82;;;19.90;68.30;;;;;;5036069;28;20472;-74
2021/09/27 08:20:47;;;;;;;3.08;1.75;;;19.90;67.80;;;;;;5032149;28;20504;-75
2021/09/27 08:23:53;;;;;;;2.55;0.98;;;20.00;66.60;;;;;;5037704;28;20151;-75
2021/09/27 08:26:59;;;;;;;4.13;0.98;;;20.00;66.20;;;;;;5037457;28;20032;-73
2021/09/27 08:30:05;;;;;;;1.55;0.88;;;20.10;65.30;;;;;;5039299;28;20036;-76
2021/09/27 08:33:11;;;;;;;3.30;1.10;;;20.10;64.60;;;;;;5037932;28;20107;-74
2021/09/27 08:36:17;;;;;;;3.40;1.33;;;20.20;64.10;;;;;;5036369;28;20507;-73
2021/09/27 08:39:24;;;;;;;3.78;1.10;;;20.20;63.20;;;;;;5040929;28;20037;-73
2021/09/27 08:42:11;;;;;;;4.55;1.23;;;20.30;62.70;;;;;;5036816;28;20036;-74
2021/09/27 08:45:20;;;;;;;4.43;1.33;;;20.30;63.10;;;;;;5041439;28;20032;-74
2021/09/27 08:48:05;;;;;;;5.13;1.05;;;20.30;63.80;;;;;;5043631;28;20080;-73
2021/09/27 08:51:14;;;;;;;5.57;1.50;;;20.30;64.20;;;;;;5040190;28;20022;-74
2021/09/27 08:54:23;;;;;;;10.45;1.15;;;20.30;64.50;;;;;;5037363;28;20112;-74
2021/09/27 08:57:18;;;;;;;5.65;1.33;;;20.30;64.60;;;;;;5041076;28;20115;-74
2021/09/27 09:00:04;;;;;;;6.88;1.80;;;20.30;64.00;;;;;;5043321;28;20072;-75
2021/09/27 09:02:31;;;;;;;7.00;2.10;;;20.20;64.00;;;;;;5040224;28;20120;-75
2021/09/27 09:05:20;;;;;;;3.25;1.05;;;20.20;63.70;;;;;;5038727;28;20059;-75
2021/09/27 09:08:07;;;;;;;3.08;1.20;;;20.10;64.00;;;;;;5032606;28;20052;-73
2021/09/27 09:10:42;;;;;;;5.25;1.80;;;20.10;63.90;;;;;;5039119;28;20999;-74
2021/09/27 09:13:54;;;;;;;5.95;1.50;;;20.10;63.40;;;;;;5039970;28;20052;-74
2021/09/27 09:17:00;;;;;;;4.32;1.20;;;20.00;63.40;;;;;;5034095;28;20068;-73
2021/09/27 09:20:07;;;;;;;6.60;2.13;;;20.00;63.50;;;;;;5036739;28;20032;-76
2021/09/27 09:23:16;;;;;;;3.45;1.00;;;20.00;63.50;;;;;;5039767;28;20036;-73
2021/09/27 09:26:24;;;;;;;3.78;1.17;;;20.00;62.70;;;;;;5040965;28;20033;-74
2021/09/27 09:29:30;;;;;;;5.45;1.25;;;20.00;62.80;;;;;;5038251;28;20506;-75
2021/09/27 09:32:37;;;;;;;3.00;1.17;;;20.00;62.40;;;;;;5039740;28;20069;-76
2021/09/27 09:35:58;;;;;;;4.13;1.02;;;20.00;62.20;;;;;;5038291;28;20055;-74
2021/09/27 09:39:04;;;;;;;8.15;2.00;;;20.00;62.00;;;;;;4975747;28;20038;-73
2021/09/27 09:42:09;;;;;;;7.88;1.73;;;20.00;62.30;;;;;;5035306;28;20025;-73
2021/09/27 09:45:08;;;;;;;5.18;1.67;;;19.90;63.80;;;;;;5031636;28;20144;-74
2021/09/27 09:48:14;;;;;;;12.32;1.90;;;19.90;64.40;;;;;;5039588;28;20056;-73
2021/09/27 09:51:20;;;;;;;5.93;1.63;;;19.80;64.60;;;;;;5033896;28;20116;-74
2021/09/27 09:54:12;;;;;;;7.30;0.95;;;19.70;64.20;;;;;;5036264;28;20114;-73
2021/09/27 09:56:58;;;;;;;5.47;1.20;;;19.60;64.40;;;;;;5038155;28;20032;-74
2021/09/27 10:00:25;;;;;;;5.68;1.80;;;19.60;64.30;;;;;;5041595;28;20045;-73
2021/09/27 10:03:31;;;;;;;3.10;1.20;;;19.50;64.70;;;;;;5038756;28;20115;-74
2021/09/27 10:06:43;;;;;;;5.38;1.48;;;19.50;64.90;;;;;;5039290;28;20121;-74
2021/09/27 10:09:50;;;;;;;2.95;1.23;;;19.50;64.30;;;;;;5041334;28;20565;-75
2021/09/27 10:12:42;;;;;;;5.53;1.65;;;19.40;64.60;;;;;;5040429;28;20651;-76
2021/09/27 10:15:27;;;;;;;6.70;1.20;;;19.40;65.20;;;;;;5040695;28;20029;-76
2021/09/27 10:18:46;;;;;;;5.75;1.10;;;19.40;66.30;;;;;;5034373;28;20193;-74
2021/09/27 10:22:04;;;;;;;4.13;0.95;;;19.30;66.00;;;;;;5032947;28;20083;-77
2021/09/27 10:25:10;;;;;;;2.63;0.90;;;19.30;66.60;;;;;;5035445;28;20029;-75
2021/09/27 10:28:16;;;;;;;6.57;1.40;;;19.30;66.90;;;;;;5041127;28;20036;-74
2021/09/27 10:31:23;;;;;;;2.90;0.95;;;19.20;66.90;;;;;;5029804;28;20021;-74
2021/09/27 10:34:29;;;;;;;5.72;1.80;;;19.20;66.90;;;;;;5034866;28;20033;-74
2021/09/27 10:37:38;;;;;;;3.72;1.15;;;19.20;67.20;;;;;;5036299;28;20380;-74
2021/09/27 10:40:44;;;;;;;3.95;0.85;;;19.10;67.60;;;;;;5039584;28;20036;-74
2021/09/27 10:43:50;;;;;;;4.90;1.15;;;19.10;67.80;;;;;;5039064;28;20016;-74
2021/09/27 10:47:02;;;;;;;4.00;0.90;;;19.10;67.90;;;;;;5034023;28;20022;-74
2021/09/27 10:50:07;;;;;;;8.32;1.77;;;19.20;67.90;;;;;;5032550;28;20022;-74
2021/09/27 10:53:26;;;;;;;5.90;1.63;;;19.20;67.70;;;;;;5034514;28;20029;-74
2021/09/27 10:56:35;;;;;;;4.20;0.93;;;19.20;67.50;;;;;;5033615;28;20037;-74
2021/09/27 10:59:44;;;;;;;3.83;0.75;;;19.10;66.80;;;;;;5026697;28;20103;-75
2021/09/27 11:02:34;;;;;;;4.60;0.75;;;19.20;66.40;;;;;;5033671;28;20106;-74
2021/09/27 11:05:33;;;;;;;2.83;0.70;;;19.20;66.40;;;;;;5035228;28;20029;-74
2021/09/27 11:08:54;;;;;;;6.80;1.20;;;19.20;66.10;;;;;;5035263;28;20025;-74
2021/09/27 11:11:23;;;;;;;3.65;1.00;;;19.20;66.80;;;;;;5035260;28;20029;-74
2021/09/27 11:14:42;;;;;;;3.38;1.73;;;19.10;67.10;;;;;;5032713;28;20029;-74
2021/09/27 11:18:03;;;;;;;4.63;1.13;;;19.20;67.60;;;;;;5035282;28;20028;-74
2021/09/27 11:20:51;;;;;;;7.68;1.45;;;19.10;67.70;;;;;;5039066;28;20041;-74
2021/09/27 11:23:49;;;;;;;5.18;1.33;;;19.10;67.60;;;;;;5041401;28;20048;-73
2021/09/27 11:26:21;;;;;;;6.00;1.10;;;19.00;67.70;;;;;;5037190;28;20115;-74
2021/09/27 11:29:10;;;;;;;7.28;2.08;;;19.00;67.30;;;;;;5039113;28;20032;-73
2021/09/27 11:32:16;;;;;;;4.88;1.10;;;19.00;67.30;;;;;;5036885;28;20034;-74
2021/09/27 11:35:21;;;;;;;1.38;0.70;;;19.00;67.40;;;;;;5027411;28;20033;-75
2021/09/27 11:37:48;;;;;;;3.45;0.60;;;19.00;67.10;;;;;;5036336;28;20057;-74
2021/09/27 11:41:06;;;;;;;3.85;1.52;;;19.00;66.60;;;;;;5039196;28;20055;-74
2021/09/27 11:44:13;;;;;;;1.77;0.60;;;19.00;67.00;;;;;;5037096;28;20024;-73
2021/09/27 11:47:09;;;;;;;3.17;0.90;;;19.10;67.30;;;;;;5036343;28;20021;-73
2021/09/27 11:50:15;;;;;;;4.90;1.15;;;19.00;67.70;;;;;;5038682;28;20076;-75
2021/09/27 11:53:27;;;;;;;2.75;0.80;;;19.10;67.40;;;;;;5037800;28;20059;-74
2021/09/27 11:56:12;;;;;;;1.73;0.77;;;19.00;66.90;;;;;;5037499;28;20030;-72
2021/09/27 11:59:29;;;;;;;2.88;0.70;;;18.90;66.80;;;;;;5033264;28;20052;-73
2021/09/27 12:02:28;;;;;;;1.45;0.50;;;18.90;67.00;;;;;;5039676;28;20060;-72
2021/09/27 12:05:30;;;;;;;1.88;0.40;;;18.80;65.80;;;;;;5037248;28;20032;-72
2021/09/27 12:08:36;;;;;;;1.65;0.57;;;18.90;65.90;;;;;;5039276;28;20881;-73
2021/09/27 12:11:08;;;;;;;6.45;1.58;;;18.90;66.50;;;;;;5037444;28;20032;-72
2021/09/27 12:13:48;;;;;;;2.30;1.25;;;18.90;67.00;;;;;;5033891;28;20060;-74
2021/09/27 12:16:47;;;;;;;2.67;0.68;;;18.90;67.40;;;;;;5040490;28;20035;-75
2021/09/27 12:19:20;;;;;;;13.27;2.05;;;18.80;67.20;;;;;;5031575;28;20048;-73
2021/09/27 12:21:51;;;;;;;3.80;1.25;;;18.80;66.80;;;;;;5037138;28;20037;-74
2021/09/27 12:24:21;;;;;;;5.15;2.88;;;18.90;66.90;;;;;;5038990;28;20023;-74
2021/09/27 12:26:54;;;;;;;1.90;0.80;;;18.90;68.70;;;;;;5035609;28;20036;-72
2021/09/27 12:29:26;;;;;;;3.22;1.10;;;19.00;67.80;;;;;;5036904;28;20022;-73
2021/09/27 12:31:57;;;;;;;3.50;1.05;;;19.10;66.10;;;;;;5035275;28;20025;-73
2021/09/27 12:34:37;;;;;;;3.75;0.80;;;19.10;65.50;;;;;;5035070;28;20162;-73
2021/09/27 12:37:12;;;;;;;5.57;1.10;;;19.20;65.40;;;;;;5039574;28;20044;-72
2021/09/27 12:39:40;;;;;;;2.80;0.70;;;19.30;64.80;;;;;;5037263;28;20041;-73
2021/09/27 12:42:11;;;;;;;4.90;1.05;;;19.40;64.20;;;;;;5041559;28;20023;-73
2021/09/27 12:44:45;;;;;;;5.45;1.00;;;19.50;63.20;;;;;;5041047;28;20632;-73
2021/09/27 12:47:12;;;;;;;4.18;0.80;;;19.60;63.30;;;;;;5042825;28;20036;-72
2021/09/27 12:49:55;;;;;;;5.88;0.75;;;19.60;62.70;;;;;;5037204;28;20512;-74
2021/09/27 12:52:37;;;;;;;2.85;1.52;;;19.60;62.10;;;;;;5040921;28;20026;-72
2021/09/27 12:55:09;;;;;;;0.88;0.47;;;19.70;61.70;;;;;;5041858;28;20152;-74
2021/09/27 12:57:48;;;;;;;4.10;1.48;;;19.70;60.80;;;;;;5041048;28;20040;-72
2021/09/27 13:00:34;;;;;;;3.42;0.77;;;19.70;60.60;;;;;;5039766;28;20053;-73
2021/09/27 13:03:07;;;;;;;1.90;0.63;;;19.80;60.60;;;;;;5044043;28;20480;-71
2021/09/27 13:05:56;;;;;;;2.60;0.80;;;19.80;60.40;;;;;;5038281;28;20074;-73
2021/09/27 13:08:39;;;;;;;4.13;0.95;;;19.80;60.40;;;;;;5032596;28;20041;-72
2021/09/27 13:11:13;;;;;;;4.88;0.80;;;19.90;60.00;;;;;;5043435;28;20009;-71
2021/09/27 13:13:42;;;;;;;3.80;1.48;;;19.90;60.00;;;;;;5037926;28;20025;-71
2021/09/27 13:16:15;;;;;;;3.90;1.00;;;19.90;59.40;;;;;;5046978;28;20025;-74
2021/09/27 13:18:47;;;;;;;4.28;0.80;;;19.90;59.20;;;;;;5037924;28;20038;-72
2021/09/27 13:21:29;;;;;;;4.00;0.80;;;20.00;59.20;;;;;;5041658;28;20025;-73
2021/09/27 13:24:03;;;;;;;3.97;0.70;;;20.00;59.80;;;;;;5043512;28;20094;-74
2021/09/27 13:26:45;;;;;;;2.25;0.90;;;20.00;58.90;;;;;;5037474;28;20472;-73
2021/09/27 13:29:39;;;;;;;2.65;1.27;;;20.00;59.00;;;;;;5041421;28;20041;-72
2021/09/27 13:32:11;;;;;;;3.10;0.90;;;20.10;57.80;;;;;;5041119;28;20368;-73
2021/09/27 13:34:50;;;;;;;4.40;0.80;;;20.10;57.50;;;;;;5039281;28;20025;-73
2021/09/27 13:37:28;;;;;;;2.55;0.57;;;20.00;57.10;;;;;;5042563;28;20017;-72
2021/09/27 13:40:07;;;;;;;4.57;1.08;;;20.00;57.30;;;;;;5037178;28;20488;-72
2021/09/27 13:42:46;;;;;;;2.30;0.70;;;20.00;57.20;;;;;;5040271;28;20025;-73
2021/09/27 13:45:30;;;;;;;1.63;0.80;;;20.00;57.00;;;;;;5040931;28;20024;-72
2021/09/27 13:47:57;;;;;;;4.10;0.90;;;20.00;56.90;;;;;;5040319;28;20030;-73
2021/09/27 13:50:24;;;;;;;1.95;0.63;;;20.00;56.70;;;;;;5038028;28;20465;-73
2021/09/27 13:53:09;;;;;;;4.55;1.08;;;19.90;56.50;;;;;;5042217;28;20021;-72
2021/09/27 13:55:36;;;;;;;2.40;1.10;;;19.90;56.40;;;;;;5040886;28;20146;-76
2021/09/27 13:58:03;;;;;;;5.32;1.08;;;19.90;56.60;;;;;;5044085;28;20025;-74
2021/09/27 14:00:29;;;;;;;5.72;0.88;;;19.90;56.50;;;;;;5039991;28;21094;-73
2021/09/27 14:02:56;;;;;;;5.18;1.05;;;19.80;56.10;;;;;;5037862;28;20112;-73
2021/09/27 14:06:02;;;;;;;3.30;0.80;;;19.80;56.20;;;;;;5039283;28;20428;-73
2021/09/27 14:09:08;;;;;;;6.45;1.35;;;19.80;55.80;;;;;;5038741;28;20036;-72
2021/09/27 14:12:14;;;;;;;4.68;0.75;;;19.80;56.10;;;;;;5042223;28;20017;-74
2021/09/27 14:15:20;;;;;;;4.45;0.75;;;19.70;55.90;;;;;;5038761;28;20032;-72
2021/09/27 14:18:26;;;;;;;2.25;0.60;;;19.70;56.20;;;;;;5038294;28;20035;-72
2021/09/27 14:21:32;;;;;;;4.47;1.10;;;19.60;56.50;;;;;;5032788;28;20537;-70
2021/09/27 14:24:03;;;;;;;2.65;1.20;;;19.60;56.80;;;;;;5033685;28;20032;-72
2021/09/27 14:27:09;;;;;;;3.08;0.65;;;19.70;57.40;;;;;;5034221;28;20052;-72
2021/09/27 14:29:36;;;;;;;2.83;0.60;;;19.70;56.80;;;;;;5038371;28;20108;-72
2021/09/27 14:32:06;;;;;;;3.47;0.85;;;19.70;58.10;;;;;;5039799;28;20017;-74
2021/09/27 14:34:33;;;;;;;12.32;1.00;;;19.70;57.40;;;;;;5037563;28;20403;-74
2021/09/27 14:37:01;;;;;;;2.58;0.95;;;19.80;57.50;;;;;;5038906;28;20801;-73
2021/09/27 14:39:28;;;;;;;6.07;0.80;;;19.80;56.30;;;;;;5039200;28;20029;-72
2021/09/27 14:41:55;;;;;;;4.05;1.10;;;19.80;55.60;;;;;;5035172;28;20477;-73